createdAt,value
2022-10-10T00:01:35.583Z,15.66
2022-10-10T00:04:05.171Z,15.64
2022-10-10T00:06:35.993Z,15.64
2022-10-10T00:09:05.586Z,15.62
2022-10-10T00:11:33.189Z,15.64
2022-10-10T00:14:00.732Z,15.60
2022-10-10T00:16:28.746Z,15.65
2022-10-10T00:18:56.291Z,15.53
2022-10-10T00:21:24.122Z,15.53
2022-10-10T00:23:52.133Z,15.43
2022-10-10T00:26:19.775Z,15.41
2022-10-10T00:28:48.366Z,15.39
2022-10-10T00:31:16.553Z,15.34
2022-10-10T00:33:44.174Z,15.34
2022-10-10T00:36:12.218Z,15.33
2022-10-10T00:38:39.704Z,15.49
2022-10-10T00:41:08.062Z,15.27
2022-10-10T00:43:36.071Z,14.75
2022-10-10T00:46:03.852Z,14.79
2022-10-10T00:48:40.347Z,14.67
2022-10-10T00:51:15.127Z,14.37
2022-10-10T00:53:55.845Z,14.30
2022-10-10T00:56:29.993Z,14.20
2022-10-10T00:59:02.915Z,14.12
2022-10-10T01:01:30.606Z,14.13
2022-10-10T01:04:01.305Z,14.09
2022-10-10T01:06:29.729Z,14.15
2022-10-10T01:08:57.946Z,14.26
2022-10-10T01:11:40.521Z,14.12
2022-10-10T01:14:07.905Z,14.78
2022-10-10T01:17:06.483Z,14.33
2022-10-10T01:20:10.623Z,13.65
2022-10-10T01:22:56.133Z,13.29
2022-10-10T01:25:55.462Z,13.28
2022-10-10T01:28:56.031Z,13.25
2022-10-10T01:31:26.603Z,13.31
2022-10-10T01:34:14.005Z,13.35
2022-10-10T01:37:02.812Z,13.49
2022-10-10T01:39:54.472Z,13.06
2022-10-10T01:42:42.544Z,13.06
2022-10-10T01:45:10.737Z,13.00
2022-10-10T01:47:39.147Z,13.17
2022-10-10T01:50:11.967Z,13.02
2022-10-10T01:53:30.358Z,13.17
2022-10-10T01:56:11.797Z,13.17
2022-10-10T01:59:09.351Z,13.35
2022-10-10T02:01:39.528Z,13.54
2022-10-10T02:04:22.711Z,13.78
2022-10-10T02:07:05.425Z,13.66
2022-10-10T02:09:39.832Z,13.62
2022-10-10T02:12:11.343Z,13.61
2022-10-10T02:14:44.401Z,13.56
2022-10-10T02:17:15.812Z,13.53
2022-10-10T02:19:50.422Z,13.43
2022-10-10T02:22:22.680Z,13.41
2022-10-10T02:24:52.269Z,13.58
2022-10-10T02:28:02.404Z,13.24
2022-10-10T02:30:30.442Z,13.16
2022-10-10T02:33:02.296Z,12.95
2022-10-10T02:35:40.921Z,12.81
2022-10-10T02:38:12.836Z,12.89
2022-10-10T02:40:43.987Z,12.76
2022-10-10T02:43:13.097Z,12.78
2022-10-10T02:45:42.954Z,12.72
2022-10-10T02:48:10.605Z,12.47
2022-10-10T02:50:38.409Z,12.48
2022-10-10T02:53:05.932Z,12.61
2022-10-10T02:55:33.557Z,12.62
2022-10-10T02:58:01.032Z,12.82
2022-10-10T03:00:28.480Z,12.88
2022-10-10T03:02:55.896Z,12.86
2022-10-10T03:05:23.397Z,12.73
2022-10-10T03:07:51.395Z,12.83
2022-10-10T03:10:18.942Z,12.88
2022-10-10T03:12:46.413Z,12.80
2022-10-10T03:15:13.908Z,12.80
2022-10-10T03:17:41.465Z,12.83
2022-10-10T03:20:09.833Z,12.82
2022-10-10T03:22:37.346Z,12.87
2022-10-10T03:25:05.408Z,12.92
2022-10-10T03:27:32.904Z,12.99
2022-10-10T03:30:00.457Z,12.99
2022-10-10T03:32:28.269Z,13.07
2022-10-10T03:34:55.771Z,12.79
2022-10-10T03:37:23.253Z,12.73
2022-10-10T03:39:50.760Z,12.54
2022-10-10T03:42:18.227Z,12.54
2022-10-10T03:44:45.658Z,12.48
2022-10-10T03:47:13.064Z,12.72
2022-10-10T03:49:40.738Z,12.67
2022-10-10T03:52:08.301Z,12.52
2022-10-10T03:54:35.790Z,12.67
2022-10-10T03:57:03.342Z,12.48
2022-10-10T03:59:30.763Z,12.79
2022-10-10T04:01:58.434Z,12.41
2022-10-10T04:04:26.026Z,12.39
2022-10-10T04:06:53.478Z,12.26
2022-10-10T04:09:21.043Z,12.35
2022-10-10T04:11:48.540Z,12.12
2022-10-10T04:14:16.025Z,12.11
2022-10-10T04:16:43.549Z,12.12
2022-10-10T04:19:11.066Z,12.33
2022-10-10T04:21:38.639Z,12.26
2022-10-10T04:24:06.348Z,12.11
2022-10-10T04:26:33.857Z,12.26
2022-10-10T04:29:01.407Z,12.21
2022-10-10T04:31:29.119Z,12.09
2022-10-10T04:33:56.686Z,12.11
2022-10-10T04:36:24.202Z,12.36
2022-10-10T04:38:51.746Z,12.33
2022-10-10T04:41:19.331Z,12.42
2022-10-10T04:43:46.910Z,12.62
2022-10-10T04:46:14.448Z,12.75
2022-10-10T04:48:42.030Z,12.70
2022-10-10T04:51:10.907Z,12.74
2022-10-10T04:53:38.479Z,12.69
2022-10-10T04:56:06.166Z,12.76
2022-10-10T04:58:33.675Z,12.86
2022-10-10T05:01:01.427Z,12.97
2022-10-10T05:03:28.964Z,13.02
2022-10-10T05:05:56.462Z,13.14
2022-10-10T05:08:23.964Z,13.29
2022-10-10T05:10:53.938Z,13.34
2022-10-10T05:13:21.370Z,13.34
2022-10-10T05:15:52.400Z,13.41
2022-10-10T05:18:21.646Z,13.71
2022-10-10T05:20:49.166Z,13.84
2022-10-10T05:23:17.525Z,13.80
2022-10-10T05:25:48.907Z,13.86
2022-10-10T05:28:17.252Z,14.02
2022-10-10T05:30:44.805Z,14.12
2022-10-10T05:33:12.730Z,14.31
2022-10-10T05:35:40.170Z,14.37
2022-10-10T05:38:07.695Z,14.48
2022-10-10T05:40:35.686Z,14.62
2022-10-10T05:43:03.226Z,14.76
2022-10-10T05:45:30.758Z,14.89
2022-10-10T05:47:58.297Z,14.92
2022-10-10T05:50:35.235Z,14.86
2022-10-10T05:53:03.037Z,15.07
2022-10-10T05:55:31.001Z,15.36
2022-10-10T05:57:58.485Z,15.67
2022-10-10T06:00:26.879Z,15.94
2022-10-10T06:02:55.331Z,16.14
2022-10-10T06:05:23.208Z,16.20
2022-10-10T06:08:11.527Z,16.32
2022-10-10T06:10:42.409Z,16.46
2022-10-10T06:13:11.526Z,16.82
2022-10-10T06:15:39.060Z,16.86
2022-10-10T06:18:07.012Z,17.01
2022-10-10T06:20:39.477Z,17.02
2022-10-10T06:23:09.229Z,17.37
2022-10-10T06:25:41.762Z,17.16
2022-10-10T06:28:11.470Z,17.66
2022-10-10T06:30:48.562Z,17.35
2022-10-10T06:33:18.674Z,17.55
2022-10-10T06:35:49.811Z,17.61
2022-10-10T06:38:17.908Z,17.66
2022-10-10T06:40:47.438Z,17.75
2022-10-10T06:43:16.500Z,17.86
2022-10-10T06:45:50.761Z,17.50
2022-10-10T06:48:18.345Z,17.83
2022-10-10T06:50:57.941Z,17.93
2022-10-10T06:53:26.102Z,18.05
2022-10-10T06:55:55.026Z,18.70
2022-10-10T06:58:28.402Z,18.61
2022-10-10T07:01:01.182Z,18.88
2022-10-10T07:03:30.720Z,18.83
2022-10-10T07:06:01.690Z,18.88
2022-10-10T07:08:30.402Z,19.10
2022-10-10T07:10:58.088Z,19.12
2022-10-10T07:13:25.563Z,19.17
2022-10-10T07:15:53.521Z,19.93
2022-10-10T07:18:21.906Z,20.12
2022-10-10T07:20:49.853Z,20.01
2022-10-10T07:23:18.192Z,20.11
2022-10-10T07:25:45.656Z,20.33
2022-10-10T07:28:13.399Z,20.52
2022-10-10T07:30:45.594Z,20.73
2022-10-10T07:33:15.125Z,20.74
2022-10-10T07:35:43.157Z,20.54
2022-10-10T07:38:13.764Z,20.90
2022-10-10T07:40:41.742Z,21.01
2022-10-10T07:43:09.247Z,20.89
2022-10-10T07:45:37.581Z,21.07
2022-10-10T07:48:05.766Z,21.18
2022-10-10T07:50:33.225Z,21.13
2022-10-10T07:53:00.884Z,21.22
2022-10-10T07:55:28.481Z,21.43
2022-10-10T07:57:56.262Z,21.47
2022-10-10T08:00:23.949Z,21.47
2022-10-10T08:02:52.265Z,21.41
2022-10-10T08:05:19.855Z,21.70
2022-10-10T08:07:47.366Z,22.20
2022-10-10T08:10:15.259Z,22.16
2022-10-10T08:12:42.999Z,22.28
2022-10-10T08:17:43.241Z,22.07
2022-10-10T08:20:12.095Z,22.55
2022-10-10T08:22:39.933Z,22.52
2022-10-10T08:25:08.092Z,22.48
2022-10-10T08:27:35.696Z,22.80
2022-10-10T08:30:03.614Z,22.98
2022-10-10T08:32:31.096Z,23.27
2022-10-10T08:34:58.627Z,23.39
2022-10-10T08:37:30.441Z,23.25
2022-10-10T08:40:01.445Z,23.34
2022-10-10T08:42:47.091Z,23.49
2022-10-10T08:45:25.143Z,23.43
2022-10-10T08:48:06.248Z,23.30
2022-10-10T08:50:40.680Z,23.37
2022-10-10T08:53:20.678Z,23.64
2022-10-10T08:55:49.743Z,23.67
2022-10-10T08:58:30.116Z,23.79
2022-10-10T09:01:10.236Z,23.77
2022-10-10T09:03:40.903Z,23.70
2022-10-10T09:06:51.396Z,23.67
2022-10-10T09:09:37.543Z,23.84
2022-10-10T09:12:33.511Z,23.94
2022-10-10T09:15:24.890Z,24.07
2022-10-10T09:18:36.153Z,24.21
2022-10-10T09:21:38.301Z,24.30
2022-10-10T09:24:21.021Z,24.21
2022-10-10T09:26:56.177Z,24.10
2022-10-10T09:29:32.370Z,24.20
2022-10-10T09:32:20.599Z,24.28
2022-10-10T09:35:12.458Z,24.38
2022-10-10T09:37:47.514Z,24.87
2022-10-10T09:40:36.850Z,24.98
2022-10-10T09:43:19.112Z,25.06
2022-10-10T09:45:56.664Z,25.27
2022-10-10T09:48:34.138Z,25.25
2022-10-10T09:51:05.782Z,25.14
2022-10-10T09:53:33.767Z,24.87
2022-10-10T09:56:06.437Z,24.96
2022-10-10T09:58:41.880Z,25.01
2022-10-10T10:01:32.481Z,25.30
2022-10-10T10:04:34.486Z,25.23
2022-10-10T10:07:31.964Z,25.30
2022-10-10T10:10:04.360Z,25.36
2022-10-10T10:12:41.511Z,25.40
2022-10-10T10:15:28.769Z,25.46
2022-10-10T10:18:22.159Z,25.43
2022-10-10T10:21:03.084Z,25.54
2022-10-10T10:23:41.044Z,25.44
2022-10-10T10:26:29.755Z,25.68
2022-10-10T10:28:58.332Z,25.95
2022-10-10T10:31:49.739Z,26.04
2022-10-10T10:35:04.978Z,25.89
2022-10-10T10:37:41.129Z,26.05
2022-10-10T10:40:36.105Z,25.98
2022-10-10T10:43:43.738Z,25.92
2022-10-10T10:46:20.067Z,25.31
2022-10-10T10:49:45.169Z,25.42
2022-10-10T10:52:21.357Z,25.71
2022-10-10T10:55:33.108Z,25.98
2022-10-10T11:01:55.400Z,25.96
2022-10-10T11:05:24.257Z,25.89
2022-10-10T11:08:11.211Z,25.80
2022-10-10T11:11:18.907Z,25.74
2022-10-10T11:14:24.394Z,26.15
2022-10-10T11:17:01.277Z,26.31
2022-10-10T11:19:43.110Z,26.40
2022-10-10T11:22:18.480Z,26.65
2022-10-10T11:25:26.505Z,26.75
2022-10-10T11:28:33.270Z,26.93
2022-10-10T11:31:12.058Z,26.65
2022-10-10T11:33:47.879Z,26.93
2022-10-10T11:36:23.970Z,26.57
2022-10-10T11:39:03.331Z,26.15
2022-10-10T11:41:51.444Z,26.23
2022-10-10T11:44:33.835Z,26.48
2022-10-10T11:47:33.306Z,26.33
2022-10-10T11:50:02.963Z,26.35
2022-10-10T11:52:37.765Z,26.38
2022-10-10T11:55:41.266Z,26.09
2022-10-10T11:58:11.461Z,25.87
2022-10-10T12:00:48.764Z,25.73
2022-10-10T12:03:16.389Z,25.91
2022-10-10T12:06:00.815Z,26.11
2022-10-10T12:08:42.102Z,26.09
2022-10-10T12:11:53.593Z,26.10
2022-10-10T12:14:26.657Z,26.24
2022-10-10T12:16:54.806Z,26.25
2022-10-10T12:19:25.179Z,26.70
2022-10-10T12:22:02.372Z,26.71
2022-10-10T12:24:34.656Z,26.39
2022-10-10T12:27:11.611Z,26.54
2022-10-10T12:29:50.709Z,26.52
2022-10-10T12:32:21.499Z,26.14
2022-10-10T12:34:49.136Z,25.93
2022-10-10T12:37:31.381Z,25.59
2022-10-10T12:40:08.285Z,25.44
2022-10-10T12:42:47.209Z,25.12
2022-10-10T12:45:29.804Z,25.07
2022-10-10T12:48:12.603Z,25.18
2022-10-10T12:50:42.706Z,25.16
2022-10-10T12:53:12.871Z,25.13
2022-10-10T12:55:47.871Z,25.51
2022-10-10T12:58:28.537Z,25.48
2022-10-10T13:01:00.401Z,25.38
2022-10-10T13:03:45.669Z,25.25
2022-10-10T13:06:43.874Z,25.31
2022-10-10T13:09:21.381Z,25.08
2022-10-10T13:11:54.870Z,25.38
2022-10-10T13:14:23.270Z,25.33
2022-10-10T13:16:50.944Z,24.95
2022-10-10T13:19:25.334Z,25.27
2022-10-10T13:21:56.216Z,25.23
2022-10-10T13:24:32.588Z,25.02
2022-10-10T13:27:00.195Z,25.02
2022-10-10T13:29:36.662Z,24.83
2022-10-10T13:32:14.112Z,24.89
2022-10-10T13:37:35.834Z,24.78
2022-10-10T13:40:04.596Z,24.57
2022-10-10T13:42:40.370Z,25.03
2022-10-10T13:45:30.735Z,24.74
2022-10-10T13:48:01.080Z,24.72
2022-10-10T13:50:34.268Z,24.67
2022-10-10T13:53:30.656Z,24.67
2022-10-10T13:59:15.310Z,25.13
2022-10-10T14:01:50.341Z,25.06
2022-10-10T14:04:44.585Z,25.15
2022-10-10T14:07:29.107Z,25.12
2022-10-10T14:10:04.763Z,25.03
2022-10-10T14:13:00.437Z,24.85
2022-10-10T14:15:46.626Z,24.69
2022-10-10T14:18:22.799Z,24.45
2022-10-10T14:20:53.577Z,24.69
2022-10-10T14:23:21.961Z,24.47
2022-10-10T14:25:50.823Z,24.45
2022-10-10T14:28:26.285Z,24.48
2022-10-10T14:30:54.018Z,24.57
2022-10-10T14:33:22.131Z,24.52
2022-10-10T14:35:53.744Z,24.64
2022-10-10T14:38:23.004Z,24.74
2022-10-10T14:40:51.761Z,24.96
2022-10-10T14:43:24.802Z,25.24
2022-10-10T14:45:56.121Z,25.52
2022-10-10T14:48:24.480Z,25.67
2022-10-10T14:50:53.229Z,25.84
2022-10-10T14:53:28.108Z,25.74
2022-10-10T14:55:57.237Z,25.80
2022-10-10T14:58:24.806Z,25.40
2022-10-10T15:00:53.449Z,25.22
2022-10-10T15:03:22.397Z,25.16
2022-10-10T15:05:51.045Z,24.85
2022-10-10T15:08:19.996Z,24.67
2022-10-10T15:10:48.371Z,24.37
2022-10-10T15:13:17.780Z,24.23
2022-10-10T15:15:48.665Z,24.04
2022-10-10T15:18:49.301Z,23.81
2022-10-10T15:21:12.841Z,23.79
2022-10-10T15:23:43.997Z,23.70
2022-10-10T15:26:13.300Z,23.46
2022-10-10T15:28:41.025Z,23.37
2022-10-10T15:31:08.919Z,23.08
2022-10-10T15:33:36.664Z,23.01
2022-10-10T15:36:10.270Z,22.88
2022-10-10T15:38:41.486Z,22.82
2022-10-10T15:41:14.151Z,22.73
2022-10-10T15:43:55.076Z,22.62
2022-10-10T15:46:28.736Z,22.41
2022-10-10T15:51:30.721Z,22.05
2022-10-10T15:54:00.454Z,22.02
2022-10-10T15:56:30.935Z,21.92
2022-10-10T15:59:00.956Z,21.88
2022-10-10T16:01:30.550Z,21.77
2022-10-10T16:03:59.118Z,21.65
2022-10-10T16:06:29.641Z,21.51
2022-10-10T16:09:26.658Z,21.41
2022-10-10T16:11:50.946Z,21.30
2022-10-10T16:14:18.922Z,21.19
2022-10-10T16:16:47.286Z,21.24
2022-10-10T16:19:15.826Z,21.10
2022-10-10T16:21:49.788Z,21.06
2022-10-10T16:24:32.155Z,20.97
2022-10-10T16:26:59.982Z,20.84
2022-10-10T16:29:27.836Z,20.80
2022-10-10T16:31:56.138Z,20.81
2022-10-10T16:34:25.511Z,20.68
2022-10-10T16:36:56.191Z,20.55
2022-10-10T16:39:25.028Z,20.45
2022-10-10T16:41:56.065Z,20.45
2022-10-10T16:44:25.023Z,20.38
2022-10-10T16:46:53.917Z,20.33
2022-10-10T16:49:28.109Z,20.29
2022-10-10T16:51:59.445Z,20.23
2022-10-10T16:54:28.498Z,20.17
2022-10-10T16:56:57.425Z,20.17
2022-10-10T16:59:28.619Z,20.08
2022-10-10T17:01:58.495Z,19.99
2022-10-10T17:04:31.943Z,19.98
2022-10-10T17:07:05.132Z,19.90
2022-10-10T17:09:35.183Z,19.77
2022-10-10T17:12:03.682Z,19.73
2022-10-10T17:14:32.169Z,19.69
2022-10-10T17:17:17.721Z,19.68
2022-10-10T17:19:45.596Z,19.50
2022-10-10T17:22:16.862Z,19.52
2022-10-10T17:24:50.169Z,19.49
2022-10-10T17:27:20.679Z,19.47
2022-10-10T17:29:48.419Z,19.48
2022-10-10T17:32:19.975Z,19.47
2022-10-10T17:35:12.157Z,19.42
2022-10-10T17:37:42.581Z,19.42
2022-10-10T17:40:11.572Z,19.42
2022-10-10T17:42:39.267Z,19.34
2022-10-10T17:45:11.619Z,19.23
2022-10-10T17:47:41.895Z,19.17
2022-10-10T17:50:13.651Z,19.18
2022-10-10T17:52:48.171Z,19.20
2022-10-10T17:55:18.662Z,19.15
2022-10-10T17:57:55.644Z,19.16
2022-10-10T18:00:24.469Z,19.04
2022-10-10T18:02:58.374Z,19.08
2022-10-10T18:05:29.166Z,19.07
2022-10-10T18:08:11.310Z,19.00
2022-10-10T18:10:41.771Z,18.97
2022-10-10T18:13:13.172Z,18.89
2022-10-10T18:15:41.812Z,18.74
2022-10-10T18:18:10.859Z,18.72
2022-10-10T18:20:42.500Z,18.65
2022-10-10T18:23:16.197Z,18.71
2022-10-10T18:25:48.857Z,18.62
2022-10-10T18:28:22.211Z,18.58
2022-10-10T18:30:51.790Z,18.51
2022-10-10T18:33:23.822Z,18.62
2022-10-10T18:35:53.535Z,18.53
2022-10-10T18:38:26.547Z,18.48
2022-10-10T18:41:16.646Z,18.41
2022-10-10T18:43:48.316Z,18.38
2022-10-10T18:46:27.504Z,18.40
2022-10-10T18:48:57.016Z,18.34
2022-10-10T18:51:31.529Z,18.35
2022-10-10T18:54:27.818Z,18.38
2022-10-10T18:57:08.456Z,18.28
2022-10-10T18:59:38.591Z,18.19
2022-10-10T19:02:06.416Z,18.20
2022-10-10T19:04:36.407Z,18.18
2022-10-10T19:07:08.956Z,18.13
2022-10-10T19:09:40.376Z,18.06
2022-10-10T19:12:08.633Z,18.23
2022-10-10T19:14:41.622Z,18.43
2022-10-10T19:17:12.323Z,18.33
2022-10-10T19:20:02.089Z,18.39
2022-10-10T19:22:33.764Z,18.39
2022-10-10T19:25:03.900Z,18.39
2022-10-10T19:27:33.967Z,18.41
2022-10-10T19:30:02.644Z,18.34
2022-10-10T19:32:31.649Z,18.34
2022-10-10T19:34:59.294Z,18.31
2022-10-10T19:37:27.273Z,18.40
2022-10-10T19:39:56.775Z,18.41
2022-10-10T19:42:24.413Z,18.36
2022-10-10T19:44:52.949Z,18.33
2022-10-10T19:47:20.930Z,18.32
2022-10-10T19:49:48.497Z,18.27
2022-10-10T19:52:16.665Z,18.32
2022-10-10T19:54:44.311Z,18.25
2022-10-10T19:57:13.315Z,18.31
2022-10-10T19:59:44.597Z,18.34
2022-10-10T20:02:12.375Z,18.40
2022-10-10T20:04:39.900Z,18.29
2022-10-10T20:07:07.675Z,18.14
2022-10-10T20:09:36.168Z,18.27
2022-10-10T20:12:03.880Z,18.36
2022-10-10T20:14:32.947Z,18.31
2022-10-10T20:17:00.966Z,18.18
2022-10-10T20:19:28.702Z,18.19
2022-10-10T20:21:57.272Z,18.17
2022-10-10T20:24:24.844Z,18.21
2022-10-10T20:26:53.678Z,18.36
2022-10-10T20:29:21.243Z,18.23
2022-10-10T20:31:48.725Z,18.15
2022-10-10T20:34:17.247Z,18.17
2022-10-10T20:36:44.786Z,18.22
2022-10-10T20:39:14.450Z,18.24
2022-10-10T20:41:43.226Z,18.37
2022-10-10T20:44:13.937Z,18.19
2022-10-10T20:46:44.004Z,18.29
2022-10-10T20:49:21.033Z,18.26
2022-10-10T20:51:51.688Z,18.19
2022-10-10T20:54:22.317Z,18.13
2022-10-10T20:56:52.592Z,18.08
2022-10-10T20:59:21.238Z,18.18
2022-10-10T21:01:49.163Z,18.38
2022-10-10T21:04:16.929Z,18.17
2022-10-10T21:06:44.706Z,18.17
2022-10-10T21:09:14.782Z,18.12
2022-10-10T21:11:43.505Z,18.12
2022-10-10T21:14:12.545Z,17.89
2022-10-10T21:16:41.714Z,17.94
2022-10-10T21:19:12.297Z,17.93
2022-10-10T21:21:40.632Z,17.91
2022-10-10T21:24:13.555Z,17.98
2022-10-10T21:26:45.491Z,17.96
2022-10-10T21:29:13.024Z,17.88
2022-10-10T21:31:41.466Z,17.75
2022-10-10T21:34:13.862Z,17.89
2022-10-10T21:36:41.636Z,18.12
2022-10-10T21:39:11.306Z,17.97
2022-10-10T21:41:38.861Z,17.86
2022-10-10T21:44:06.936Z,17.84
2022-10-10T21:46:37.303Z,17.84
2022-10-10T21:49:11.400Z,17.83
2022-10-10T21:51:42.674Z,17.90
2022-10-10T21:54:11.240Z,17.87
2022-10-10T21:56:39.438Z,17.85
2022-10-10T21:59:08.034Z,17.72
2022-10-10T22:01:37.703Z,17.72
2022-10-10T22:04:06.689Z,17.89
2022-10-10T22:06:34.654Z,17.72
2022-10-10T22:09:03.553Z,17.63
2022-10-10T22:11:34.430Z,17.71
2022-10-10T22:14:03.294Z,17.84
2022-10-10T22:16:32.911Z,17.69
2022-10-10T22:19:02.001Z,17.62
2022-10-10T22:21:35.082Z,17.64
2022-10-10T22:24:09.380Z,17.54
2022-10-10T22:26:37.129Z,17.60
2022-10-10T22:29:05.610Z,17.52
2022-10-10T22:31:37.888Z,17.43
2022-10-10T22:34:06.904Z,17.31
2022-10-10T22:36:34.760Z,17.35
2022-10-10T22:39:02.346Z,17.28
2022-10-10T22:41:29.982Z,17.39
2022-10-10T22:43:57.580Z,17.22
2022-10-10T22:46:25.328Z,17.32
2022-10-10T22:48:53.623Z,17.18
2022-10-10T22:51:21.411Z,17.14
2022-10-10T22:53:49.433Z,17.13
2022-10-10T22:56:20.618Z,17.14
2022-10-10T22:58:50.674Z,17.09
2022-10-10T23:01:22.182Z,17.16
2022-10-10T23:03:50.153Z,17.17
2022-10-10T23:06:20.922Z,17.09
2022-10-10T23:08:48.457Z,17.18
2022-10-10T23:11:16.317Z,17.04
2022-10-10T23:13:44.869Z,16.92
2022-10-10T23:16:12.508Z,17.10
2022-10-10T23:18:40.006Z,16.97
2022-10-10T23:21:07.569Z,16.81
2022-10-10T23:23:35.203Z,16.84
2022-10-10T23:26:07.862Z,16.84
2022-10-10T23:28:37.080Z,16.91
2022-10-10T23:31:08.005Z,16.82
2022-10-10T23:33:37.154Z,17.01
2022-10-10T23:36:12.362Z,16.96
2022-10-10T23:38:42.063Z,16.89
2022-10-10T23:41:11.286Z,16.88
2022-10-10T23:43:38.931Z,16.98
2022-10-10T23:46:07.653Z,16.90
2022-10-10T23:48:35.909Z,16.88
2022-10-10T23:51:04.311Z,16.82
2022-10-10T23:53:32.043Z,16.91
2022-10-10T23:55:59.565Z,16.83
2022-10-10T23:58:27.120Z,16.85
